createdAt,value
2024-05-09T00:00:22.543Z,25.80
2024-05-09T00:01:02.619Z,24.33
2024-05-09T00:01:37.797Z,23.33
2024-05-09T00:02:10.166Z,26.13
2024-05-09T00:02:42.507Z,26.73
2024-05-09T00:03:17.827Z,26.88
2024-05-09T00:03:50.317Z,25.73
2024-05-09T00:04:22.757Z,28.17
2024-05-09T00:04:57.867Z,24.73
2024-05-09T00:05:30.411Z,26.48
2024-05-09T00:06:04.092Z,27.10
2024-05-09T00:06:39.322Z,26.90
2024-05-09T00:07:11.713Z,28.48
2024-05-09T00:07:44.225Z,29.38
2024-05-09T00:08:16.677Z,28.55
2024-05-09T00:08:51.641Z,32.53
2024-05-09T00:09:23.980Z,27.45
2024-05-09T00:09:56.303Z,29.52
2024-05-09T00:10:35.565Z,30.58
2024-05-09T00:11:13.102Z,28.95
2024-05-09T00:11:45.553Z,31.35
2024-05-09T00:12:18.026Z,30.70
2024-05-09T00:12:50.427Z,32.53
2024-05-09T00:13:25.331Z,29.60
2024-05-09T00:13:57.754Z,30.30
2024-05-09T00:14:30.247Z,29.27
2024-05-09T00:15:02.611Z,27.30
2024-05-09T00:15:37.720Z,26.75
2024-05-09T00:16:10.068Z,27.73
2024-05-09T00:16:42.477Z,29.03
2024-05-09T00:17:14.874Z,31.80
2024-05-09T00:17:50.208Z,29.48
2024-05-09T00:18:23.031Z,26.40
2024-05-09T00:18:55.646Z,28.27
2024-05-09T00:19:28.267Z,27.45
2024-05-09T00:20:05.303Z,27.95
2024-05-09T00:20:41.672Z,24.42
2024-05-09T00:21:14.443Z,26.77
2024-05-09T00:21:46.802Z,32.10
2024-05-09T00:22:21.765Z,32.05
2024-05-09T00:22:54.068Z,30.67
2024-05-09T00:23:26.485Z,30.20
2024-05-09T00:23:58.782Z,28.92
2024-05-09T00:24:33.672Z,30.55
2024-05-09T00:25:06.415Z,32.63
2024-05-09T00:25:38.882Z,31.95
2024-05-09T00:26:13.916Z,32.47
2024-05-09T00:26:46.282Z,29.42
2024-05-09T00:27:18.576Z,29.60
2024-05-09T00:27:53.538Z,30.88
2024-05-09T00:28:26.076Z,34.47
2024-05-09T00:28:58.491Z,32.42
2024-05-09T00:29:33.703Z,28.30
2024-05-09T00:30:07.273Z,29.70
2024-05-09T00:30:39.902Z,26.20
2024-05-09T00:31:14.816Z,30.23
2024-05-09T00:31:47.408Z,30.85
2024-05-09T00:32:19.841Z,30.77
2024-05-09T00:32:52.410Z,29.75
2024-05-09T00:33:25.089Z,32.85
2024-05-09T00:34:00.284Z,33.60
2024-05-09T00:34:32.856Z,32.53
2024-05-09T00:35:05.464Z,33.03
2024-05-09T00:35:38.539Z,33.03
2024-05-09T00:36:13.796Z,28.30
2024-05-09T00:36:46.138Z,30.27
2024-05-09T00:37:18.508Z,29.90
2024-05-09T00:37:50.841Z,29.00
2024-05-09T00:38:25.799Z,31.25
2024-05-09T00:38:58.184Z,30.83
2024-05-09T00:39:30.490Z,27.45
2024-05-09T00:40:03.555Z,29.55
2024-05-09T00:40:43.502Z,29.77
2024-05-09T00:41:18.951Z,29.00
2024-05-09T00:41:51.958Z,28.23
2024-05-09T00:42:26.905Z,32.80
2024-05-09T00:42:59.189Z,31.02
2024-05-09T00:43:32.681Z,27.83
2024-05-09T00:44:05.378Z,27.45
2024-05-09T00:44:40.533Z,26.63
2024-05-09T00:45:12.895Z,27.95
2024-05-09T00:45:45.342Z,29.05
2024-05-09T00:46:18.167Z,30.83
2024-05-09T00:46:55.453Z,29.95
2024-05-09T00:47:27.939Z,30.73
2024-05-09T00:48:06.473Z,27.60
2024-05-09T00:48:40.211Z,27.65
2024-05-09T00:49:16.082Z,30.05
2024-05-09T00:49:48.756Z,30.23
2024-05-09T00:50:29.615Z,30.85
2024-05-09T00:51:10.776Z,30.00
2024-05-09T00:51:43.357Z,30.25
2024-05-09T00:52:15.808Z,33.65
2024-05-09T00:52:48.542Z,32.17
2024-05-09T00:53:23.515Z,33.28
2024-05-09T00:53:56.001Z,31.42
2024-05-09T00:54:29.388Z,28.38
2024-05-09T00:55:01.917Z,30.95
2024-05-09T00:55:38.461Z,29.42
2024-05-09T00:56:12.404Z,29.88
2024-05-09T00:56:45.237Z,30.70
2024-05-09T00:57:20.618Z,35.55
2024-05-09T00:57:53.148Z,32.75
2024-05-09T00:58:28.043Z,31.65
2024-05-09T00:59:00.923Z,30.80
2024-05-09T00:59:36.925Z,35.78
2024-05-09T01:00:18.539Z,34.95
2024-05-09T01:01:00.725Z,35.13
2024-05-09T01:01:35.967Z,36.70
2024-05-09T01:02:09.627Z,36.42
2024-05-09T01:02:42.032Z,32.50
2024-05-09T01:03:14.812Z,29.93
2024-05-09T01:03:51.331Z,30.60
2024-05-09T01:04:23.833Z,30.40
2024-05-09T01:04:56.562Z,31.70
2024-05-09T01:05:28.980Z,31.13
2024-05-09T01:06:03.961Z,28.65
2024-05-09T01:06:36.285Z,30.25
2024-05-09T01:07:09.229Z,30.65
2024-05-09T01:07:41.567Z,34.58
2024-05-09T01:08:16.944Z,32.30
2024-05-09T01:08:49.277Z,30.10
2024-05-09T01:09:21.681Z,30.65
2024-05-09T01:09:54.034Z,30.05
2024-05-09T01:10:34.318Z,29.63
2024-05-09T01:11:08.474Z,29.40
2024-05-09T01:11:41.670Z,30.55
2024-05-09T01:12:16.936Z,35.67
2024-05-09T01:12:53.768Z,32.60
2024-05-09T01:13:26.100Z,32.00
2024-05-09T01:13:58.428Z,34.45
2024-05-09T01:14:33.404Z,33.55
2024-05-09T01:15:06.189Z,32.22
2024-05-09T01:15:38.637Z,34.15
2024-05-09T01:16:14.814Z,30.80
2024-05-09T01:16:47.209Z,32.25
2024-05-09T01:17:19.672Z,30.23
2024-05-09T01:17:55.509Z,33.20
2024-05-09T01:18:30.996Z,30.58
2024-05-09T01:19:05.348Z,32.47
2024-05-09T01:19:37.927Z,34.53
2024-05-09T01:20:12.843Z,33.45
2024-05-09T01:20:51.321Z,29.75
2024-05-09T01:21:23.760Z,30.90
2024-05-09T01:21:56.320Z,32.67
2024-05-09T01:22:30.914Z,29.55
2024-05-09T01:23:12.676Z,31.40
2024-05-09T01:23:45.914Z,29.15
2024-05-09T01:24:18.261Z,27.90
2024-05-09T01:24:53.180Z,30.25
2024-05-09T01:25:25.520Z,27.33
2024-05-09T01:25:57.810Z,32.42
2024-05-09T01:26:32.763Z,33.35
2024-05-09T01:27:05.300Z,33.97
2024-05-09T01:27:37.693Z,33.50
2024-05-09T01:28:09.996Z,29.63
2024-05-09T01:28:44.972Z,30.25
2024-05-09T01:29:17.443Z,33.33
2024-05-09T01:29:49.822Z,34.03
2024-05-09T01:30:31.852Z,34.40
2024-05-09T01:31:07.521Z,33.92
2024-05-09T01:31:40.281Z,29.85
2024-05-09T01:32:15.334Z,31.20
2024-05-09T01:32:47.835Z,32.03
2024-05-09T01:33:20.462Z,32.00
2024-05-09T01:33:55.777Z,32.50
2024-05-09T01:34:28.228Z,31.13
2024-05-09T01:35:00.731Z,32.03
2024-05-09T01:35:33.208Z,32.55
2024-05-09T01:36:08.288Z,31.60
2024-05-09T01:36:40.601Z,30.65
2024-05-09T01:37:13.015Z,29.85
2024-05-09T01:37:45.334Z,27.95
2024-05-09T01:38:20.323Z,27.90
2024-05-09T01:38:52.635Z,28.80
2024-05-09T01:39:25.135Z,29.70
2024-05-09T01:39:57.458Z,29.38
2024-05-09T01:40:37.993Z,30.77
2024-05-09T01:41:12.396Z,27.83
2024-05-09T01:41:44.769Z,24.30
2024-05-09T01:42:19.746Z,28.33
2024-05-09T01:42:52.062Z,27.77
2024-05-09T01:43:24.345Z,28.38
2024-05-09T01:43:56.721Z,30.63
2024-05-09T01:44:31.626Z,31.98
2024-05-09T01:45:04.098Z,33.80
2024-05-09T01:45:36.364Z,30.77
2024-05-09T01:46:14.713Z,30.47
2024-05-09T01:46:49.624Z,30.80
2024-05-09T01:47:22.356Z,32.47
2024-05-09T01:47:54.937Z,29.35
2024-05-09T01:48:27.424Z,29.88
2024-05-09T01:49:02.953Z,27.65
2024-05-09T01:49:37.279Z,29.10
2024-05-09T01:50:11.058Z,27.73
2024-05-09T01:50:46.329Z,29.52
2024-05-09T01:51:18.737Z,32.92
2024-05-09T01:51:51.071Z,33.85
2024-05-09T01:52:23.360Z,33.70
2024-05-09T01:52:55.774Z,36.35
2024-05-09T01:53:31.569Z,35.35
2024-05-09T01:54:04.058Z,35.05
2024-05-09T01:54:37.292Z,29.45
2024-05-09T01:55:09.669Z,35.53
2024-05-09T01:55:44.811Z,31.13
2024-05-09T01:56:17.565Z,33.58
2024-05-09T01:56:50.155Z,30.60
2024-05-09T01:57:22.804Z,31.23
2024-05-09T01:57:58.735Z,33.72
2024-05-09T01:58:31.063Z,34.25
2024-05-09T01:59:03.937Z,33.33
2024-05-09T01:59:36.445Z,28.35
2024-05-09T02:00:15.609Z,31.20
2024-05-09T02:00:48.088Z,29.17
2024-05-09T02:01:20.535Z,26.55
2024-05-09T02:01:56.897Z,26.95
2024-05-09T02:02:32.795Z,30.05
2024-05-09T02:03:05.742Z,33.00
2024-05-09T02:03:38.289Z,33.72
2024-05-09T02:04:11.213Z,35.22
2024-05-09T02:04:50.391Z,32.72
2024-05-09T02:05:22.946Z,33.00
2024-05-09T02:05:55.530Z,33.97
2024-05-09T02:06:31.406Z,31.00
2024-05-09T02:07:03.712Z,30.95
2024-05-09T02:07:36.089Z,33.50
2024-05-09T02:08:15.587Z,31.17
2024-05-09T02:08:48.080Z,28.92
2024-05-09T02:09:20.403Z,27.85
2024-05-09T02:09:55.790Z,33.90
2024-05-09T02:10:32.532Z,30.27
2024-05-09T02:11:05.768Z,30.88
2024-05-09T02:11:47.955Z,34.13
2024-05-09T02:12:20.549Z,33.90
2024-05-09T02:12:53.047Z,32.28
2024-05-09T02:13:28.001Z,34.60
2024-05-09T02:14:00.469Z,32.95
2024-05-09T02:14:32.867Z,29.60
2024-05-09T02:15:05.506Z,29.65
2024-05-09T02:15:40.371Z,31.25
2024-05-09T02:16:13.002Z,29.50
2024-05-09T02:16:45.340Z,32.38
2024-05-09T02:17:18.060Z,29.02
2024-05-09T02:17:53.225Z,32.55
2024-05-09T02:18:25.851Z,29.98
2024-05-09T02:18:58.597Z,28.58
2024-05-09T02:19:31.148Z,28.58
2024-05-09T02:20:06.385Z,28.77
2024-05-09T02:20:40.749Z,29.35
2024-05-09T02:21:13.256Z,31.70
2024-05-09T02:21:45.879Z,26.08
2024-05-09T02:22:20.785Z,28.87
2024-05-09T02:22:53.292Z,31.92
2024-05-09T02:23:25.709Z,30.70
2024-05-09T02:23:58.056Z,29.33
2024-05-09T02:24:32.932Z,26.70
2024-05-09T02:25:05.382Z,29.42
2024-05-09T02:25:37.958Z,33.13
2024-05-09T02:26:12.926Z,34.87
2024-05-09T02:26:45.237Z,32.28
2024-05-09T02:27:17.509Z,29.63
2024-05-09T02:27:49.854Z,33.03
2024-05-09T02:28:24.713Z,29.08
2024-05-09T02:28:57.066Z,35.30
2024-05-09T02:29:29.654Z,29.52
2024-05-09T02:30:02.113Z,26.92
2024-05-09T02:30:40.030Z,31.17
2024-05-09T02:31:16.734Z,28.80
2024-05-09T02:31:49.247Z,28.30
2024-05-09T02:32:21.958Z,27.80
2024-05-09T02:32:54.509Z,27.60
2024-05-09T02:33:29.547Z,26.10
2024-05-09T02:34:02.120Z,28.80
2024-05-09T02:34:34.638Z,30.65
2024-05-09T02:35:07.076Z,29.08
2024-05-09T02:35:39.561Z,31.03
2024-05-09T02:36:15.079Z,29.13
2024-05-09T02:36:47.385Z,29.58
2024-05-09T02:37:19.661Z,32.03
2024-05-09T02:37:51.965Z,27.85
2024-05-09T02:38:25.086Z,34.45
2024-05-09T02:38:57.468Z,32.50
2024-05-09T02:39:29.873Z,29.05
2024-05-09T02:40:07.111Z,27.17
2024-05-09T02:40:41.378Z,28.77
2024-05-09T02:41:14.057Z,28.88
2024-05-09T02:41:46.497Z,28.30
2024-05-09T02:42:18.837Z,31.27
2024-05-09T02:42:51.495Z,30.25
2024-05-09T02:43:26.409Z,30.38
2024-05-09T02:43:58.726Z,30.80
2024-05-09T02:44:31.064Z,28.77
2024-05-09T02:45:03.427Z,30.83
2024-05-09T02:45:35.733Z,29.58
2024-05-09T02:46:08.180Z,31.05
2024-05-09T02:46:40.596Z,29.27
2024-05-09T02:47:15.614Z,31.25
2024-05-09T02:47:48.165Z,27.40
2024-05-09T02:48:20.791Z,29.17
2024-05-09T02:48:53.319Z,33.10
2024-05-09T02:49:25.852Z,31.42
2024-05-09T02:49:58.362Z,30.67
2024-05-09T02:50:37.770Z,30.90
2024-05-09T02:51:14.788Z,29.20
2024-05-09T02:51:47.069Z,30.25
2024-05-09T02:52:19.633Z,32.75
2024-05-09T02:52:51.959Z,29.88
2024-05-09T02:53:24.322Z,31.63
2024-05-09T02:53:56.621Z,29.23
2024-05-09T02:54:31.577Z,34.53
2024-05-09T02:55:03.939Z,33.33
2024-05-09T02:55:36.270Z,34.70
2024-05-09T02:56:08.673Z,35.10
2024-05-09T02:56:41.350Z,30.73
2024-05-09T02:57:13.726Z,28.00
2024-05-09T02:57:46.024Z,28.92
2024-05-09T02:58:20.952Z,28.88
2024-05-09T02:58:53.396Z,28.95
2024-05-09T02:59:25.809Z,30.08
2024-05-09T02:59:58.237Z,33.58
2024-05-09T03:00:38.244Z,34.90
2024-05-09T03:01:13.482Z,38.40
2024-05-09T03:01:48.457Z,38.90
2024-05-09T03:02:21.030Z,34.42
2024-05-09T03:02:53.498Z,36.95
2024-05-09T03:03:26.377Z,38.40
2024-05-09T03:03:59.000Z,34.87
2024-05-09T03:04:31.538Z,34.00
2024-05-09T03:05:04.340Z,35.92
2024-05-09T03:05:39.620Z,37.33
2024-05-09T03:06:12.111Z,35.40
2024-05-09T03:06:44.680Z,35.93
2024-05-09T03:07:19.727Z,34.47
2024-05-09T03:07:52.454Z,35.35
2024-05-09T03:08:27.978Z,34.47
2024-05-09T03:09:00.952Z,34.13
2024-05-09T03:09:33.341Z,37.03
2024-05-09T03:10:12.208Z,33.55
2024-05-09T03:10:50.746Z,36.00
2024-05-09T03:11:26.596Z,32.13
2024-05-09T03:11:59.061Z,31.38
2024-05-09T03:12:36.570Z,32.63
2024-05-09T03:13:11.712Z,32.42
2024-05-09T03:13:44.471Z,32.30
2024-05-09T03:14:19.880Z,29.30
2024-05-09T03:14:52.257Z,29.10
2024-05-09T03:15:24.585Z,28.85
2024-05-09T03:15:59.450Z,27.85
2024-05-09T03:16:31.785Z,30.50
2024-05-09T03:17:04.104Z,32.30
2024-05-09T03:17:36.645Z,29.13
2024-05-09T03:18:09.604Z,32.33
2024-05-09T03:18:45.028Z,31.75
2024-05-09T03:19:17.578Z,33.03
2024-05-09T03:19:50.142Z,30.75
2024-05-09T03:20:27.598Z,34.85
2024-05-09T03:21:05.545Z,35.28
2024-05-09T03:21:40.970Z,35.92
2024-05-09T03:22:15.979Z,34.92
2024-05-09T03:22:48.690Z,32.80
2024-05-09T03:23:21.676Z,31.17
2024-05-09T03:23:54.046Z,34.30
2024-05-09T03:24:26.395Z,36.25
2024-05-09T03:24:58.719Z,36.92
2024-05-09T03:25:33.957Z,34.17
2024-05-09T03:26:13.744Z,33.63
2024-05-09T03:26:47.031Z,38.28
2024-05-09T03:27:19.608Z,37.15
2024-05-09T03:27:53.291Z,32.17
2024-05-09T03:28:25.584Z,34.63
2024-05-09T03:29:00.518Z,35.38
2024-05-09T03:29:32.867Z,37.55
2024-05-09T03:30:07.233Z,37.63
2024-05-09T03:30:42.527Z,35.65
2024-05-09T03:31:19.016Z,36.10
2024-05-09T03:31:51.443Z,39.80
2024-05-09T03:32:23.833Z,38.10
2024-05-09T03:32:58.858Z,38.90
2024-05-09T03:33:31.577Z,35.53
2024-05-09T03:34:04.339Z,33.47
2024-05-09T03:34:39.248Z,32.80
2024-05-09T03:35:11.598Z,34.67
2024-05-09T03:35:44.625Z,31.67
2024-05-09T03:36:16.926Z,31.63
2024-05-09T03:36:51.877Z,33.97
2024-05-09T03:37:24.198Z,34.05
2024-05-09T03:37:56.598Z,34.72
2024-05-09T03:38:28.962Z,34.37
2024-05-09T03:39:01.283Z,38.45
2024-05-09T03:39:36.654Z,34.97
2024-05-09T03:40:14.645Z,37.80
2024-05-09T03:40:53.168Z,33.85
2024-05-09T03:41:25.555Z,35.58
2024-05-09T03:42:00.598Z,33.78
2024-05-09T03:42:32.920Z,32.10
2024-05-09T03:43:05.425Z,37.38
2024-05-09T03:43:37.720Z,35.53
2024-05-09T03:44:10.011Z,34.80
2024-05-09T03:44:45.002Z,39.08
2024-05-09T03:45:17.397Z,37.85
2024-05-09T03:45:50.836Z,36.03
2024-05-09T03:46:23.241Z,36.58
2024-05-09T03:46:55.711Z,34.28
2024-05-09T03:47:28.235Z,37.85
2024-05-09T03:48:03.380Z,38.33
2024-05-09T03:48:36.350Z,39.05
2024-05-09T03:49:08.992Z,37.07
2024-05-09T03:49:41.437Z,36.80
2024-05-09T03:50:21.989Z,36.58
2024-05-09T03:50:58.283Z,41.78
2024-05-09T03:51:33.273Z,42.22
2024-05-09T03:52:06.091Z,43.88
2024-05-09T03:52:38.443Z,44.90
2024-05-09T03:53:12.852Z,44.35
2024-05-09T03:53:45.537Z,48.35
2024-05-09T03:54:17.932Z,40.38
2024-05-09T03:54:50.222Z,43.05
2024-05-09T03:55:25.100Z,39.10
2024-05-09T03:55:57.704Z,36.95
2024-05-09T03:56:30.216Z,34.28
2024-05-09T03:57:02.928Z,38.00
2024-05-09T03:57:35.386Z,37.75
2024-05-09T03:58:08.045Z,39.80
2024-05-09T03:58:40.543Z,38.20
2024-05-09T03:59:15.519Z,40.75
2024-05-09T03:59:47.939Z,39.78
2024-05-09T04:00:30.412Z,40.28
2024-05-09T04:01:08.013Z,38.25
2024-05-09T04:01:41.117Z,39.40
2024-05-09T04:02:13.610Z,38.25
2024-05-09T04:02:48.254Z,37.53
2024-05-09T04:03:23.429Z,35.70
2024-05-09T04:03:58.062Z,38.20
2024-05-09T04:04:30.457Z,34.25
2024-05-09T04:05:02.815Z,37.85
2024-05-09T04:05:35.366Z,33.47
2024-05-09T04:06:07.878Z,39.83
2024-05-09T04:06:43.267Z,38.63
2024-05-09T04:07:15.566Z,40.85
2024-05-09T04:07:47.943Z,38.92
2024-05-09T04:08:20.285Z,38.40
2024-05-09T04:08:53.379Z,35.20
2024-05-09T04:09:25.729Z,32.13
2024-05-09T04:09:58.049Z,34.95
2024-05-09T04:10:34.709Z,37.47
2024-05-09T04:11:07.829Z,39.50
2024-05-09T04:11:40.483Z,37.97
2024-05-09T04:12:12.963Z,33.72
2024-05-09T04:12:45.488Z,36.28
2024-05-09T04:13:17.960Z,34.92
2024-05-09T04:13:50.479Z,38.00
2024-05-09T04:14:25.477Z,35.08
2024-05-09T04:14:58.041Z,37.63
2024-05-09T04:15:30.421Z,36.73
2024-05-09T04:16:02.757Z,34.95
2024-05-09T04:16:35.042Z,36.17
2024-05-09T04:17:07.365Z,34.60
2024-05-09T04:17:39.910Z,37.45
2024-05-09T04:18:15.136Z,39.85
2024-05-09T04:18:47.654Z,36.22
2024-05-09T04:19:20.533Z,35.83
2024-05-09T04:19:53.009Z,39.05
2024-05-09T04:20:35.905Z,39.08
2024-05-09T04:21:11.623Z,37.47
2024-05-09T04:21:46.822Z,36.83
2024-05-09T04:22:19.115Z,38.30
2024-05-09T04:22:51.533Z,38.53
2024-05-09T04:23:23.939Z,39.97
2024-05-09T04:23:56.398Z,36.95
2024-05-09T04:24:28.814Z,37.35
2024-05-09T04:25:01.133Z,38.80
2024-05-09T04:25:33.464Z,37.90
2024-05-09T04:26:09.716Z,36.38
2024-05-09T04:26:42.070Z,32.83
2024-05-09T04:27:14.595Z,35.55
2024-05-09T04:27:46.916Z,34.60
2024-05-09T04:28:19.743Z,32.38
2024-05-09T04:28:52.101Z,34.13
2024-05-09T04:29:26.438Z,37.05
2024-05-09T04:30:01.336Z,36.00
2024-05-09T04:30:38.574Z,31.90
2024-05-09T04:31:13.274Z,37.60
2024-05-09T04:31:45.847Z,34.33
2024-05-09T04:32:18.281Z,30.30
2024-05-09T04:32:51.266Z,32.63
2024-05-09T04:33:24.061Z,33.67
2024-05-09T04:33:58.123Z,34.45
2024-05-09T04:34:33.274Z,36.00
2024-05-09T04:35:06.036Z,40.60
2024-05-09T04:35:38.557Z,38.77
2024-05-09T04:36:11.116Z,38.45
2024-05-09T04:36:44.621Z,37.10
2024-05-09T04:37:17.782Z,41.65
2024-05-09T04:37:50.222Z,41.38
2024-05-09T04:38:25.234Z,42.15
2024-05-09T04:38:57.639Z,42.83
2024-05-09T04:39:30.082Z,39.83
2024-05-09T04:40:02.397Z,39.20
2024-05-09T04:40:37.238Z,40.15
2024-05-09T04:41:10.224Z,41.50
2024-05-09T04:41:45.353Z,41.88
2024-05-09T04:42:17.947Z,36.13
2024-05-09T04:42:50.374Z,37.73
2024-05-09T04:43:22.941Z,39.08
2024-05-09T04:43:55.664Z,37.83
2024-05-09T04:44:28.169Z,39.33
2024-05-09T04:45:00.655Z,35.28
2024-05-09T04:45:35.919Z,34.95
2024-05-09T04:46:08.320Z,40.63
2024-05-09T04:46:40.825Z,36.10
2024-05-09T04:47:13.434Z,34.55
2024-05-09T04:47:46.044Z,37.20
2024-05-09T04:48:18.738Z,33.42
2024-05-09T04:48:54.137Z,39.50
2024-05-09T04:49:26.684Z,38.33
2024-05-09T04:49:59.141Z,38.65
2024-05-09T04:50:36.966Z,37.10
2024-05-09T04:51:11.547Z,36.92
2024-05-09T04:51:43.904Z,37.42
2024-05-09T04:52:18.868Z,38.30
2024-05-09T04:52:51.209Z,37.83
2024-05-09T04:53:23.627Z,35.83
2024-05-09T04:53:56.069Z,36.83
2024-05-09T04:54:35.692Z,36.22
2024-05-09T04:55:08.950Z,33.63
2024-05-09T04:55:41.359Z,34.35
2024-05-09T04:56:13.776Z,32.85
2024-05-09T04:56:48.870Z,30.73
2024-05-09T04:57:21.402Z,31.88
2024-05-09T04:57:53.747Z,30.58
2024-05-09T04:58:26.040Z,30.80
2024-05-09T04:58:59.463Z,30.63
2024-05-09T04:59:32.507Z,29.90
2024-05-09T05:00:11.547Z,29.38
2024-05-09T05:00:49.622Z,28.23
2024-05-09T05:01:21.977Z,27.25
2024-05-09T05:01:54.415Z,29.33
2024-05-09T05:02:26.901Z,27.25
2024-05-09T05:02:59.663Z,26.80
2024-05-09T05:03:32.560Z,30.25
2024-05-09T05:04:05.292Z,26.52
2024-05-09T05:04:40.313Z,29.52
2024-05-09T05:05:12.738Z,27.33
2024-05-09T05:05:46.158Z,28.60
2024-05-09T05:06:18.774Z,27.67
2024-05-09T05:06:51.075Z,26.20
2024-05-09T05:07:23.586Z,26.00
2024-05-09T05:07:55.932Z,25.42
2024-05-09T05:08:31.000Z,26.40
2024-05-09T05:09:03.671Z,24.00
2024-05-09T05:09:35.977Z,26.80
2024-05-09T05:10:14.873Z,24.40
2024-05-09T05:10:53.481Z,23.65
2024-05-09T05:11:25.956Z,23.25
2024-05-09T05:12:02.830Z,23.02
2024-05-09T05:12:53.729Z,24.48
2024-05-09T05:13:26.136Z,23.65
2024-05-09T05:13:58.482Z,23.67
2024-05-09T05:14:30.992Z,21.17
2024-05-09T05:15:03.573Z,21.60
2024-05-09T05:15:38.477Z,23.20
2024-05-09T05:16:10.870Z,24.00
2024-05-09T05:16:43.185Z,22.52
2024-05-09T05:17:15.584Z,22.10
2024-05-09T05:17:48.040Z,20.63
2024-05-09T05:18:20.615Z,21.33
2024-05-09T05:18:53.219Z,19.83
2024-05-09T05:19:26.392Z,19.38
2024-05-09T05:20:01.612Z,20.27
2024-05-09T05:20:34.498Z,19.10
2024-05-09T05:21:06.898Z,18.95
2024-05-09T05:21:39.363Z,21.20
2024-05-09T05:22:11.897Z,20.10
2024-05-09T05:22:44.814Z,19.90
2024-05-09T05:23:23.268Z,20.80
2024-05-09T05:23:56.172Z,21.83
2024-05-09T05:24:28.488Z,19.60
2024-05-09T05:25:00.925Z,21.17
2024-05-09T05:25:33.658Z,17.85
2024-05-09T05:26:06.035Z,17.23
2024-05-09T05:26:41.054Z,17.63
2024-05-09T05:27:13.402Z,18.23
2024-05-09T05:27:45.720Z,18.07
2024-05-09T05:28:18.472Z,20.27
2024-05-09T05:28:50.974Z,16.92
2024-05-09T05:29:23.596Z,17.30
2024-05-09T05:29:58.763Z,19.05
2024-05-09T05:30:34.579Z,20.27
2024-05-09T05:31:07.558Z,20.70
2024-05-09T05:31:40.130Z,19.58
2024-05-09T05:32:12.596Z,18.23
2024-05-09T05:32:45.184Z,19.45
2024-05-09T05:33:22.590Z,19.52
2024-05-09T05:33:55.428Z,18.40
2024-05-09T05:34:27.786Z,19.58
2024-05-09T05:35:00.233Z,19.75
2024-05-09T05:35:32.882Z,17.93
2024-05-09T05:36:05.700Z,20.70
2024-05-09T05:36:38.093Z,21.20
2024-05-09T05:37:13.064Z,19.23
2024-05-09T05:37:45.497Z,19.80
2024-05-09T05:38:17.992Z,18.45
2024-05-09T05:38:50.681Z,20.35
2024-05-09T05:39:23.014Z,20.92
2024-05-09T05:39:55.307Z,22.58
2024-05-09T05:40:35.013Z,21.88
2024-05-09T05:41:12.798Z,23.58
2024-05-09T05:41:45.297Z,19.92
2024-05-09T05:42:17.565Z,19.73
2024-05-09T05:42:49.970Z,20.27
2024-05-09T05:43:22.279Z,21.42
2024-05-09T05:43:54.660Z,22.92
2024-05-09T05:44:27.126Z,19.03
2024-05-09T05:44:59.510Z,21.30
2024-05-09T05:45:34.519Z,19.27
2024-05-09T05:46:06.875Z,20.25
2024-05-09T05:46:39.213Z,19.83
2024-05-09T05:47:11.567Z,21.58
2024-05-09T05:47:44.210Z,22.10
2024-05-09T05:48:17.852Z,20.13
2024-05-09T05:48:53.339Z,21.08
2024-05-09T05:49:26.959Z,20.30
2024-05-09T05:50:00.277Z,22.65
2024-05-09T05:50:36.491Z,22.73
2024-05-09T05:51:10.632Z,21.23
2024-05-09T05:51:43.003Z,23.55
2024-05-09T05:52:15.377Z,23.80
2024-05-09T05:52:50.384Z,20.75
2024-05-09T05:53:22.796Z,21.83
2024-05-09T05:53:55.198Z,22.08
2024-05-09T05:54:27.641Z,22.15
2024-05-09T05:54:59.966Z,21.88
2024-05-09T05:55:32.360Z,23.30
2024-05-09T05:56:07.979Z,22.77
2024-05-09T05:56:40.543Z,21.80
2024-05-09T05:57:13.667Z,22.77
2024-05-09T05:57:45.983Z,19.45
2024-05-09T05:58:20.188Z,23.33
2024-05-09T05:58:55.166Z,24.52
2024-05-09T05:59:29.287Z,23.52
2024-05-09T06:00:01.746Z,23.35
2024-05-09T06:00:44.589Z,23.20
2024-05-09T06:01:17.011Z,21.25
2024-05-09T06:01:49.458Z,23.20
2024-05-09T06:02:21.820Z,25.20
2024-05-09T06:02:56.928Z,23.85
2024-05-09T06:03:29.507Z,20.25
2024-05-09T06:04:02.050Z,23.02
2024-05-09T06:04:34.430Z,21.73
2024-05-09T06:05:07.104Z,21.90
2024-05-09T06:05:40.560Z,22.83
2024-05-09T06:06:14.484Z,20.73
2024-05-09T06:06:49.635Z,21.83
2024-05-09T06:07:22.028Z,23.52
2024-05-09T06:07:54.465Z,19.80
2024-05-09T06:08:30.172Z,21.33
2024-05-09T06:09:02.835Z,20.67
2024-05-09T06:09:35.239Z,22.83
2024-05-09T06:10:16.949Z,24.20
2024-05-09T06:10:56.222Z,23.60
2024-05-09T06:11:28.669Z,21.25
2024-05-09T06:12:01.355Z,21.90
2024-05-09T06:12:33.777Z,23.85
2024-05-09T06:13:06.107Z,23.00
2024-05-09T06:13:43.305Z,20.98
2024-05-09T06:14:18.916Z,22.42
2024-05-09T06:14:51.364Z,22.63
2024-05-09T06:15:23.950Z,22.15
2024-05-09T06:15:56.263Z,23.75
2024-05-09T06:16:28.623Z,21.67
2024-05-09T06:17:00.970Z,24.02
2024-05-09T06:17:33.549Z,21.55
2024-05-09T06:18:11.378Z,19.35
2024-05-09T06:18:46.718Z,20.90
2024-05-09T06:19:19.915Z,21.83
2024-05-09T06:19:52.579Z,20.52
2024-05-09T06:20:34.551Z,21.83
2024-05-09T06:21:09.527Z,21.97
2024-05-09T06:21:41.875Z,20.92
2024-05-09T06:22:14.267Z,22.27
2024-05-09T06:22:49.248Z,22.55
2024-05-09T06:23:21.758Z,21.00
2024-05-09T06:23:54.746Z,21.75
2024-05-09T06:24:27.287Z,23.73
2024-05-09T06:24:59.633Z,26.65
2024-05-09T06:25:32.199Z,23.20
2024-05-09T06:26:05.406Z,19.52
2024-05-09T06:26:40.522Z,22.13
2024-05-09T06:27:12.895Z,24.48
2024-05-09T06:27:45.285Z,21.48
2024-05-09T06:28:17.628Z,22.13
2024-05-09T06:28:49.909Z,25.30
2024-05-09T06:29:22.258Z,19.50
2024-05-09T06:29:54.622Z,20.88
2024-05-09T06:30:38.013Z,22.15
2024-05-09T06:31:12.839Z,19.00
2024-05-09T06:31:46.242Z,24.63
2024-05-09T06:32:18.730Z,24.67
2024-05-09T06:32:51.275Z,21.58
2024-05-09T06:33:26.663Z,22.80
2024-05-09T06:33:59.294Z,22.13
2024-05-09T06:34:31.753Z,22.80
2024-05-09T06:35:04.328Z,23.30
2024-05-09T06:35:37.170Z,22.55
2024-05-09T06:36:09.863Z,19.50
2024-05-09T06:36:44.756Z,22.23
2024-05-09T06:37:17.083Z,21.80
2024-05-09T06:37:49.625Z,22.00
2024-05-09T06:38:22.122Z,18.90
2024-05-09T06:38:54.787Z,20.92
2024-05-09T06:39:27.659Z,21.63
2024-05-09T06:40:00.350Z,22.13
2024-05-09T06:40:37.571Z,24.80
2024-05-09T06:41:14.525Z,22.80
2024-05-09T06:41:47.034Z,21.85
2024-05-09T06:42:19.397Z,24.15
2024-05-09T06:42:53.923Z,20.70
2024-05-09T06:43:26.283Z,21.70
2024-05-09T06:43:58.703Z,20.45
2024-05-09T06:44:31.155Z,21.13
2024-05-09T06:45:06.497Z,23.30
2024-05-09T06:45:40.009Z,24.15
2024-05-09T06:46:12.531Z,24.98
2024-05-09T06:46:45.360Z,24.25
2024-05-09T06:47:18.075Z,23.00
2024-05-09T06:47:50.644Z,22.20
2024-05-09T06:48:23.423Z,19.55
2024-05-09T06:48:57.245Z,21.40
2024-05-09T06:49:32.823Z,24.27
2024-05-09T06:50:08.336Z,21.52
2024-05-09T06:50:45.760Z,21.67
2024-05-09T06:51:18.184Z,22.80
2024-05-09T06:51:50.564Z,20.33
2024-05-09T06:52:25.493Z,22.60
2024-05-09T06:52:57.845Z,24.17
2024-05-09T06:53:30.239Z,23.70
2024-05-09T06:54:02.670Z,23.33
2024-05-09T06:54:34.990Z,23.25
2024-05-09T06:55:07.409Z,23.73
2024-05-09T06:55:39.712Z,24.73
2024-05-09T06:56:14.649Z,24.90
2024-05-09T06:56:47.061Z,20.83
2024-05-09T06:57:19.462Z,22.20
2024-05-09T06:57:51.765Z,25.23
2024-05-09T06:58:24.050Z,24.58
2024-05-09T06:58:56.544Z,23.23
2024-05-09T06:59:31.689Z,24.05
2024-05-09T07:00:08.219Z,21.92
2024-05-09T07:00:42.702Z,22.55
2024-05-09T07:01:15.170Z,23.42
2024-05-09T07:01:47.520Z,25.38
2024-05-09T07:02:22.700Z,23.58
2024-05-09T07:02:55.226Z,22.92
2024-05-09T07:03:27.716Z,22.90
2024-05-09T07:04:00.205Z,22.83
2024-05-09T07:04:32.895Z,24.37
2024-05-09T07:05:05.990Z,23.38
2024-05-09T07:05:38.576Z,22.55
2024-05-09T07:06:13.540Z,23.27
2024-05-09T07:06:45.911Z,24.73
2024-05-09T07:07:18.547Z,23.35
2024-05-09T07:07:50.959Z,20.20
2024-05-09T07:08:24.540Z,21.73
2024-05-09T07:08:57.023Z,20.67
2024-05-09T07:09:31.920Z,20.38
2024-05-09T07:10:07.778Z,19.80
2024-05-09T07:10:42.629Z,20.35
2024-05-09T07:11:15.366Z,20.90
2024-05-09T07:11:48.008Z,21.98
2024-05-09T07:12:20.495Z,23.05
2024-05-09T07:12:56.393Z,19.95
2024-05-09T07:13:28.697Z,19.33
2024-05-09T07:14:01.192Z,17.63